Time;durP1;ratioP1;P1;durP2;ratioP2;P2;SDS_P1;SDS_P2;PMS_P1;PMS_P2;Temp;Humidity;BMP_temperature;BMP_pressure;BME280_temperature;BME280_humidity;BME280_pressure;Samples;Min_cycle;Max_cycle;Signal;HPM_P1;HPM_P2
2022/05/25 00:00:24;;;;;;;9.45;5.60;;;;;;;11.16;100.00;100912.16;5049034;28;20059;-79
2022/05/25 00:02:49;;;;;;;7.47;6.15;;;;;;;11.19;100.00;100910.03;5083383;28;20047;-79
2022/05/25 00:05:16;;;;;;;7.80;6.00;;;;;;;11.25;100.00;100905.94;5074689;28;20040;-79
2022/05/25 00:07:43;;;;;;;6.25;4.95;;;;;;;11.30;100.00;100909.19;5073235;28;20376;-79
2022/05/25 00:10:09;;;;;;;7.32;5.90;;;;;;;11.18;100.00;100901.94;5088403;28;20047;-79
2022/05/25 00:12:35;;;;;;;10.93;5.93;;;;;;;11.30;100.00;100908.31;5056961;28;20035;-80
2022/05/25 00:15:01;;;;;;;8.50;5.43;;;;;;;11.24;100.00;100908.81;5076357;28;20036;-78
2022/05/25 00:17:27;;;;;;;6.82;5.25;;;;;;;11.21;100.00;100908.06;5044151;28;20064;-79
2022/05/25 00:19:59;;;;;;;9.32;5.82;;;;;;;11.30;100.00;100913.78;5067389;28;20029;-80
2022/05/25 00:22:25;;;;;;;7.88;5.30;;;;;;;11.27;100.00;100908.56;5037111;28;20037;-79
2022/05/25 00:24:50;;;;;;;11.27;5.45;;;;;;;11.28;100.00;100919.41;5089904;28;20036;-79
2022/05/25 00:27:19;;;;;;;6.75;4.95;;;;;;;11.28;100.00;100911.19;5086794;28;20089;-79
2022/05/25 00:29:45;;;;;;;6.78;5.13;;;;;;;11.22;100.00;100918.00;5070745;28;20033;-79
2022/05/25 00:32:11;;;;;;;6.32;5.13;;;;;;;11.24;100.00;100911.53;5079548;28;20070;-79
2022/05/25 00:34:39;;;;;;;5.85;5.07;;;;;;;11.17;100.00;100922.13;5081660;28;20499;-79
2022/05/25 00:37:04;;;;;;;7.35;5.25;;;;;;;11.13;100.00;100918.75;5076966;28;20054;-80
2022/05/25 00:39:30;;;;;;;10.43;5.47;;;;;;;11.04;100.00;100919.50;5086421;28;20028;-77
2022/05/25 00:41:56;;;;;;;7.95;5.95;;;;;;;11.04;100.00;100922.25;5061212;28;20465;-79
2022/05/25 00:44:23;;;;;;;13.45;5.30;;;;;;;11.06;100.00;100923.00;5076441;28;20044;-79
2022/05/25 00:46:51;;;;;;;9.05;5.55;;;;;;;10.94;100.00;100930.31;5094501;28;20044;-79
2022/05/25 00:49:26;;;;;;;11.02;5.57;;;;;;;10.86;100.00;100927.31;5058044;28;20131;-78
2022/05/25 00:52:02;;;;;;;7.80;5.40;;;;;;;10.74;100.00;100922.81;5076771;28;20063;-80
2022/05/25 00:54:45;;;;;;;10.25;5.70;;;;;;;10.87;100.00;100923.59;5064087;28;20055;-79
2022/05/25 00:57:49;;;;;;;9.85;5.45;;;;;;;10.73;100.00;100929.28;5072122;28;20737;-79
2022/05/25 01:00:24;;;;;;;10.02;6.93;;;;;;;10.68;100.00;100935.13;5034769;28;20061;-78
2022/05/25 01:02:53;;;;;;;14.70;7.20;;;;;;;10.61;100.00;100928.41;5033036;28;20033;-79
2022/05/25 01:05:28;;;;;;;8.52;5.57;;;;;;;10.54;100.00;100921.63;5063396;28;20051;-78
2022/05/25 01:08:06;;;;;;;6.95;5.93;;;;;;;10.50;100.00;100940.16;5088338;28;20036;-80
2022/05/25 01:10:50;;;;;;;7.15;5.95;;;;;;;10.54;100.00;100930.72;5070694;28;20036;-79
2022/05/25 01:13:54;;;;;;;8.93;5.88;;;;;;;10.40;100.00;100926.31;5081825;28;20510;-78
2022/05/25 01:16:28;;;;;;;10.60;7.22;;;;;;;10.43;100.00;100928.81;5054120;28;20032;-79
2022/05/25 01:19:28;;;;;;;10.43;6.18;;;;;;;10.39;100.00;100931.91;5075822;28;20056;-79
2022/05/25 01:22:16;;;;;;;9.30;5.93;;;;;;;10.32;100.00;100941.56;5057256;28;20052;-80
2022/05/25 01:25:08;;;;;;;11.52;6.78;;;;;;;10.29;100.00;100948.13;5054405;28;20056;-78
2022/05/25 01:27:38;;;;;;;8.27;5.90;;;;;;;10.38;100.00;100943.84;5031393;28;20036;-78
2022/05/25 01:30:31;;;;;;;9.55;6.18;;;;;;;10.28;100.00;100947.28;5068378;28;20068;-78
2022/05/25 01:33:11;;;;;;;9.73;6.57;;;;;;;10.23;100.00;100940.38;5078619;28;20032;-79
2022/05/25 01:35:57;;;;;;;10.02;5.93;;;;;;;10.21;100.00;100953.31;5076008;28;20142;-79
2022/05/25 01:38:33;;;;;;;10.88;6.13;;;;;;;10.25;100.00;100949.38;5081867;28;20032;-78
2022/05/25 01:41:13;;;;;;;9.13;6.05;;;;;;;10.18;100.00;100950.81;5074243;28;20085;-78
2022/05/25 01:43:45;;;;;;;7.80;5.97;;;;;;;10.19;100.00;100952.56;5083308;28;20029;-78
2022/05/25 01:46:24;;;;;;;10.40;6.60;;;;;;;10.18;100.00;100959.03;5041619;28;20036;-79
2022/05/25 01:48:52;;;;;;;8.13;6.30;;;;;;;10.14;100.00;100966.59;5095801;28;20090;-78
2022/05/25 01:51:26;;;;;;;9.75;6.35;;;;;;;10.12;100.00;100960.38;5098215;28;20036;-79
2022/05/25 01:53:58;;;;;;;9.38;6.20;;;;;;;10.10;100.00;100963.22;5087240;28;20036;-79
2022/05/25 01:56:27;;;;;;;8.13;6.32;;;;;;;10.09;100.00;100957.88;5075760;28;20119;-77
2022/05/25 01:58:57;;;;;;;13.02;6.57;;;;;;;10.10;100.00;100965.06;5087396;28;20093;-78
2022/05/25 02:01:22;;;;;;;9.15;6.93;;;;;;;10.07;100.00;100963.44;5088990;28;20036;-78
2022/05/25 02:06:49;;;;;;;12.57;7.10;;;;;;;10.02;100.00;100967.50;5080416;28;20134;-78
2022/05/25 02:09:40;;;;;;;11.15;7.35;;;;;;;10.04;100.00;100960.94;5107254;27;20032;-78
2022/05/25 02:12:16;;;;;;;12.43;8.00;;;;;;;9.95;100.00;100967.09;5090936;28;20039;-78
2022/05/25 02:15:16;;;;;;;14.38;7.78;;;;;;;9.94;100.00;100968.09;5078289;28;20036;-78
2022/05/25 02:18:10;;;;;;;11.00;7.63;;;;;;;10.02;100.00;100982.06;5100817;28;20101;-79
2022/05/25 02:20:47;;;;;;;15.07;7.55;;;;;;;9.94;100.00;100976.31;5095636;28;20036;-78
2022/05/25 02:23:47;;;;;;;11.98;7.15;;;;;;;9.99;100.00;100974.09;5093702;28;20028;-78
2022/05/25 02:26:20;;;;;;;11.55;7.35;;;;;;;9.94;100.00;100977.16;5071246;28;20391;-78
2022/05/25 02:29:03;;;;;;;18.08;7.55;;;;;;;9.91;100.00;100976.53;5089098;28;20035;-79
2022/05/25 02:31:36;;;;;;;11.60;7.80;;;;;;;9.85;100.00;100971.50;5072916;28;20027;-79
2022/05/25 02:34:05;;;;;;;12.52;7.22;;;;;;;9.81;100.00;100976.34;5082715;28;20058;-79
2022/05/25 02:36:35;;;;;;;15.90;7.60;;;;;;;9.98;100.00;100985.16;5079639;28;20028;-79
2022/05/25 02:39:06;;;;;;;12.98;7.88;;;;;;;10.01;100.00;100985.78;5108778;28;20032;-79
2022/05/25 02:41:34;;;;;;;15.25;7.55;;;;;;;10.10;100.00;100976.91;5085703;28;20031;-79
2022/05/25 02:44:02;;;;;;;8.43;6.95;;;;;;;9.91;100.00;100965.59;5109439;27;20056;-78
2022/05/25 02:46:27;;;;;;;9.63;7.28;;;;;;;9.93;100.00;100969.09;5061159;28;20036;-78
2022/05/25 02:48:53;;;;;;;11.20;7.38;;;;;;;9.90;100.00;100980.25;5058065;28;20079;-78
2022/05/25 02:51:19;;;;;;;8.77;7.28;;;;;;;9.93;100.00;100993.69;5090822;28;20031;-79
2022/05/25 02:53:45;;;;;;;13.48;7.85;;;;;;;9.75;100.00;100980.38;5074293;28;20028;-78
2022/05/25 02:56:11;;;;;;;10.48;7.00;;;;;;;9.88;100.00;100985.81;5085534;28;20032;-79
2022/05/25 02:58:36;;;;;;;11.75;7.20;;;;;;;9.88;100.00;100993.16;5042263;28;20023;-78
2022/05/25 03:01:03;;;;;;;14.02;6.78;;;;;;;9.82;100.00;101004.56;5073507;28;20443;-79
2022/05/25 03:03:28;;;;;;;11.95;6.90;;;;;;;9.79;100.00;100991.09;5091004;28;20021;-79
2022/05/25 03:05:54;;;;;;;8.90;6.68;;;;;;;9.78;100.00;100995.72;5091648;28;20107;-77
2022/05/25 03:08:20;;;;;;;12.38;6.93;;;;;;;9.77;100.00;100993.94;5072502;28;20067;-78
2022/05/25 03:10:47;;;;;;;8.80;7.07;;;;;;;9.72;100.00;101004.34;5092733;28;20029;-78
2022/05/25 03:13:12;;;;;;;11.73;7.45;;;;;;;9.78;100.00;101008.50;5077450;28;20510;-78
2022/05/25 03:15:38;;;;;;;9.02;6.32;;;;;;;9.81;100.00;101000.94;5048093;28;20032;-79
2022/05/25 03:18:05;;;;;;;12.10;6.93;;;;;;;9.78;100.00;101014.84;5074442;28;20527;-77
2022/05/25 03:20:32;;;;;;;10.00;6.30;;;;;;;9.79;100.00;101015.72;5095830;28;20040;-77
2022/05/25 03:22:57;;;;;;;10.48;6.35;;;;;;;9.69;100.00;101010.94;5076574;28;20032;-78
2022/05/25 03:25:23;;;;;;;12.20;6.18;;;;;;;9.73;100.00;101020.66;5076819;28;20036;-78
2022/05/25 03:27:48;;;;;;;8.40;6.40;;;;;;;9.67;100.00;101026.56;5101809;28;20036;-78
2022/05/25 03:30:16;;;;;;;12.68;6.00;;;;;;;9.67;100.00;101023.81;5090933;28;20059;-79
2022/05/25 03:32:43;;;;;;;11.52;5.72;;;;;;;9.59;100.00;101019.91;5096239;28;20023;-79
2022/05/25 03:35:10;;;;;;;11.15;6.40;;;;;;;9.63;100.00;101019.56;5075223;28;20051;-80
2022/05/25 03:37:36;;;;;;;12.13;6.93;;;;;;;9.59;100.00;101017.16;5068979;28;20023;-79
2022/05/25 03:40:05;;;;;;;11.93;6.70;;;;;;;9.59;100.00;101034.44;5086924;28;20480;-78
2022/05/25 03:42:31;;;;;;;9.02;6.13;;;;;;;9.61;100.00;101035.22;5070961;28;20037;-78
2022/05/25 03:44:58;;;;;;;16.73;6.22;;;;;;;9.57;100.00;101023.66;5069162;28;20047;-79
2022/05/25 03:47:23;;;;;;;9.45;6.10;;;;;;;9.61;100.00;101032.50;5056299;28;20356;-79
2022/05/25 03:49:49;;;;;;;12.75;6.03;;;;;;;9.64;100.00;101035.00;5069550;28;20051;-79
2022/05/25 03:52:20;;;;;;;10.50;6.10;;;;;;;9.59;100.00;101034.44;5092219;28;20040;-79
2022/05/25 03:54:45;;;;;;;11.48;5.82;;;;;;;9.60;100.00;101040.81;5068834;28;20646;-81
2022/05/25 03:57:10;;;;;;;10.30;6.22;;;;;;;9.61;100.00;101037.06;5070665;28;20035;-79
2022/05/25 03:59:36;;;;;;;10.43;5.88;;;;;;;9.62;100.00;101036.94;5093846;28;20034;-79
2022/05/25 04:02:02;;;;;;;12.40;6.55;;;;;;;9.59;100.00;101039.03;5069534;28;20040;-79
2022/05/25 04:04:27;;;;;;;12.05;6.47;;;;;;;9.55;100.00;101031.06;5071061;28;20458;-79
2022/05/25 04:06:53;;;;;;;8.98;6.22;;;;;;;9.62;100.00;101045.16;5099063;28;20112;-79
2022/05/25 04:09:18;;;;;;;11.52;5.60;;;;;;;9.60;100.00;101046.28;5059756;28;20031;-79
2022/05/25 04:11:44;;;;;;;11.02;6.25;;;;;;;9.72;100.00;101051.72;5081825;28;20032;-78
2022/05/25 04:14:12;;;;;;;10.35;5.97;;;;;;;9.72;100.00;101053.56;5060331;28;20391;-79
2022/05/25 04:16:37;;;;;;;13.57;6.55;;;;;;;9.62;100.00;101057.97;5096002;28;20028;-79
2022/05/25 04:19:04;;;;;;;13.00;7.30;;;;;;;9.59;100.00;101066.38;5064841;28;20036;-78
2022/05/25 04:21:30;;;;;;;8.90;5.82;;;;;;;9.66;100.00;101062.25;5079956;28;20032;-79
2022/05/25 04:23:56;;;;;;;18.67;6.35;;;;;;;9.66;100.00;101057.63;5073659;28;20521;-78
2022/05/25 04:26:22;;;;;;;17.80;6.20;;;;;;;9.72;100.00;101049.00;5087081;28;20529;-79
2022/05/25 04:28:47;;;;;;;8.50;5.28;;;;;;;9.74;100.00;101048.88;5073828;28;20036;-79
2022/05/25 04:31:13;;;;;;;12.55;5.75;;;;;;;9.78;100.00;101066.81;5067548;28;20063;-80
2022/05/25 04:33:40;;;;;;;7.50;4.90;;;;;;;9.80;100.00;101056.63;5051193;28;20467;-78
2022/05/25 04:36:06;;;;;;;12.63;5.80;;;;;;;9.92;100.00;101065.81;5055163;28;20040;-80
2022/05/25 04:38:32;;;;;;;12.82;5.78;;;;;;;9.89;100.00;101053.22;5083151;28;20032;-80
2022/05/25 04:40:57;;;;;;;12.73;6.13;;;;;;;10.00;100.00;101059.75;5043551;28;20746;-80
2022/05/25 04:43:26;;;;;;;13.02;5.70;;;;;;;10.02;100.00;101063.25;5078488;28;20059;-81
2022/05/25 04:45:53;;;;;;;14.77;5.50;;;;;;;10.05;100.00;101066.66;5077815;28;20040;-81
2022/05/25 04:48:23;;;;;;;9.98;4.90;;;;;;;10.07;100.00;101070.16;5079626;28;20055;-80
2022/05/25 04:50:50;;;;;;;13.77;6.35;;;;;;;10.11;100.00;101070.78;5056835;28;20375;-78
2022/05/25 04:53:18;;;;;;;11.88;5.75;;;;;;;10.17;100.00;101074.94;5082708;28;20127;-79
2022/05/25 04:58:35;;;;;;;16.40;6.82;;;;;;;10.29;100.00;101071.28;5064981;28;20040;-78
2022/05/25 05:01:02;;;;;;;13.23;5.63;;;;;;;10.31;100.00;101072.03;5089679;28;20036;-79
2022/05/25 05:03:28;;;;;;;11.55;5.80;;;;;;;10.27;100.00;101071.41;5092390;28;20032;-76
2022/05/25 05:05:55;;;;;;;13.40;6.38;;;;;;;10.38;100.00;101077.97;5077320;28;20502;-79
2022/05/25 05:08:22;;;;;;;21.17;6.30;;;;;;;10.50;100.00;101076.19;5073837;28;20055;-78
2022/05/25 05:10:49;;;;;;;10.75;5.65;;;;;;;10.50;100.00;101081.66;5084818;28;20518;-79
2022/05/25 05:13:14;;;;;;;12.38;5.47;;;;;;;10.54;100.00;101089.50;5091240;28;20379;-79
2022/05/25 05:15:43;;;;;;;16.67;6.10;;;;;;;10.64;100.00;101087.84;5059995;28;20040;-80
2022/05/25 05:18:09;;;;;;;14.07;5.40;;;;;;;10.65;100.00;101083.22;5072800;28;20024;-79
2022/05/25 05:20:37;;;;;;;11.95;5.22;;;;;;;10.79;100.00;101084.91;5095673;28;20020;-78
2022/05/25 05:23:04;;;;;;;13.30;5.60;;;;;;;10.93;100.00;101081.13;5076895;28;20675;-81
2022/05/25 05:25:29;;;;;;;13.07;5.38;;;;;;;11.08;100.00;101084.53;5056992;28;20066;-78
2022/05/25 05:28:09;;;;;;;10.48;4.97;;;;;;;11.22;100.00;101092.56;5092153;28;20119;-78
2022/05/25 05:30:45;;;;;;;12.15;5.13;;;;;;;11.27;100.00;101095.81;5059470;28;20020;-79
2022/05/25 05:33:10;;;;;;;14.30;5.15;;;;;;;11.59;100.00;101092.38;5086939;28;20043;-79
2022/05/25 05:35:36;;;;;;;14.63;5.03;;;;;;;11.48;100.00;101093.25;5089942;28;20092;-77
2022/05/25 05:38:02;;;;;;;10.80;4.80;;;;;;;11.92;100.00;101080.63;5071368;28;20040;-78
2022/05/25 05:40:29;;;;;;;16.25;5.30;;;;;;;12.12;100.00;101083.59;5089688;28;20564;-78
2022/05/25 05:42:56;;;;;;;15.27;4.72;;;;;;;12.46;100.00;101089.03;5093740;28;20040;-77
2022/05/25 05:45:28;;;;;;;8.77;4.30;;;;;;;12.25;100.00;101086.22;5077923;28;20043;-78
2022/05/25 05:48:01;;;;;;;12.18;4.65;;;;;;;12.09;100.00;101076.47;5061648;28;20047;-79
2022/05/25 05:50:29;;;;;;;;;;;;;;;12.47;100.00;101090.78;5095408;28;20055;-78
2022/05/25 05:52:54;;;;;;;12.70;4.15;;;;;;;12.72;100.00;101080.47;5121570;27;19976;-78
2022/05/25 05:55:20;;;;;;;9.98;4.40;;;;;;;12.73;100.00;101079.47;5089006;28;20043;-78
2022/05/25 05:57:46;;;;;;;20.88;4.93;;;;;;;12.94;100.00;101088.63;5097319;28;20047;-78
2022/05/25 06:00:15;;;;;;;12.93;4.22;;;;;;;13.20;100.00;101082.78;5096835;28;20086;-76
2022/05/25 06:02:44;;;;;;;8.45;4.22;;;;;;;12.90;100.00;101086.28;5105604;28;20043;-77
2022/05/25 06:05:11;;;;;;;9.70;4.70;;;;;;;13.07;100.00;101077.47;5064048;28;20039;-77
2022/05/25 06:07:38;;;;;;;11.70;4.78;;;;;;;13.51;100.00;101080.09;5115137;28;20024;-78
2022/05/25 06:10:06;;;;;;;9.48;4.50;;;;;;;13.55;100.00;101084.34;5102306;28;20036;-77
2022/05/25 06:12:33;;;;;;;9.82;4.38;;;;;;;13.64;100.00;101089.03;5115300;28;20171;-78
2022/05/25 06:19:25;;;;;;;7.30;4.22;;;;;;;13.81;100.00;101084.78;5115429;28;20043;-76
2022/05/25 06:20:31;;;;;;;13.02;4.63;;;;;;;14.05;100.00;101097.34;5116106;28;20084;-78
2022/05/25 06:22:56;;;;;;;11.23;5.20;;;;;;;13.96;100.00;101101.81;5081412;28;20383;-77
2022/05/25 06:25:22;;;;;;;15.07;5.03;;;;;;;13.78;100.00;101104.31;5063101;28;20035;-77
2022/05/25 06:27:47;;;;;;;12.82;4.93;;;;;;;14.08;100.00;101103.44;5080200;28;20526;-78
2022/05/25 06:30:14;;;;;;;15.63;4.55;;;;;;;14.16;100.00;101100.88;5081207;28;20035;-78
2022/05/25 06:32:40;;;;;;;14.18;4.78;;;;;;;14.32;100.00;101110.50;5097106;28;20050;-78
2022/05/25 06:35:07;;;;;;;16.85;4.68;;;;;;;14.62;100.00;101093.06;5097733;28;20035;-77
2022/05/25 06:37:32;;;;;;;9.57;4.40;;;;;;;14.68;100.00;101113.69;5096764;28;20366;-78
2022/05/25 06:40:00;;;;;;;12.88;4.60;;;;;;;14.27;100.00;101107.31;5095166;28;20032;-78
2022/05/25 06:42:28;;;;;;;8.48;4.18;;;;;;;14.44;100.00;101109.38;5095903;28;20135;-76
2022/05/25 06:44:54;;;;;;;11.05;4.72;;;;;;;15.06;100.00;101111.97;5096280;28;20055;-77
2022/05/25 06:47:20;;;;;;;9.65;4.65;;;;;;;14.85;100.00;101118.47;5063330;28;20045;-77
2022/05/25 06:49:52;;;;;;;10.27;4.70;;;;;;;15.07;100.00;101124.78;5096518;28;20044;-77
2022/05/25 06:52:18;;;;;;;18.27;5.07;;;;;;;15.18;100.00;101129.25;5088766;28;20114;-77
2022/05/25 06:54:44;;;;;;;15.13;5.38;;;;;;;15.87;100.00;101119.03;5105736;28;20384;-77
2022/05/25 06:57:11;;;;;;;13.30;5.10;;;;;;;15.75;100.00;101113.66;5096602;28;20031;-77
2022/05/25 06:59:36;;;;;;;11.00;4.63;;;;;;;15.07;100.00;101128.38;5079971;28;20135;-77
2022/05/25 07:02:02;;;;;;;9.38;4.65;;;;;;;15.01;100.00;101126.19;5079151;28;20126;-77
2022/05/25 07:04:28;;;;;;;15.32;4.85;;;;;;;15.59;100.00;101122.56;5094841;28;20479;-77
2022/05/25 07:06:53;;;;;;;11.13;5.05;;;;;;;15.89;100.00;101126.16;5097640;28;20035;-77
2022/05/25 07:09:19;;;;;;;13.98;4.60;;;;;;;16.07;100.00;101133.66;5113973;28;20059;-77
2022/05/25 07:11:50;;;;;;;10.48;5.07;;;;;;;15.81;100.00;101131.56;5063102;28;20122;-77
2022/05/25 07:14:15;;;;;;;10.52;4.63;;;;;;;16.44;100.00;101135.53;5078995;28;20035;-78
2022/05/25 07:16:41;;;;;;;15.00;5.00;;;;;;;17.03;100.00;101144.38;5078690;28;20506;-77
2022/05/25 07:19:07;;;;;;;12.20;5.10;;;;;;;16.35;100.00;101140.09;5079770;28;20041;-77
2022/05/25 07:21:34;;;;;;;15.07;6.20;;;;;;;15.92;100.00;101134.16;5096059;28;20040;-78
2022/05/25 07:24:00;;;;;;;10.48;4.90;;;;;;;16.61;100.00;101144.91;5078768;28;20027;-77
2022/05/25 07:26:28;;;;;;;15.35;5.38;;;;;;;16.43;100.00;101140.22;5078873;28;20048;-77
2022/05/25 07:28:55;;;;;;;15.60;5.57;;;;;;;16.94;100.00;101143.44;5114056;28;20035;-77
2022/05/25 07:31:29;;;;;;;17.50;4.80;;;;;;;16.58;100.00;101148.88;5095412;28;20096;-77
2022/05/25 07:34:04;;;;;;;13.20;4.65;;;;;;;16.95;100.00;101156.22;5079816;28;20020;-78
2022/05/25 07:36:30;;;;;;;11.40;4.65;;;;;;;17.01;100.00;101151.97;5096696;28;20031;-78
2022/05/25 07:38:59;;;;;;;12.82;4.32;;;;;;;16.76;100.00;101150.78;5096428;28;20103;-77
2022/05/25 07:41:25;;;;;;;16.85;4.75;;;;;;;16.63;100.00;101151.16;5097101;28;20032;-78
2022/05/25 07:43:57;;;;;;;19.48;4.65;;;;;;;16.42;100.00;101156.94;5095253;28;20087;-77
2022/05/25 07:46:25;;;;;;;9.25;4.28;;;;;;;15.78;100.00;101152.03;5079153;28;20058;-79
2022/05/25 07:48:50;;;;;;;18.15;4.70;;;;;;;16.67;100.00;101156.22;5079224;28;20040;-77
2022/05/25 07:51:17;;;;;;;13.00;4.70;;;;;;;16.76;100.00;101159.97;5079504;28;20039;-77
2022/05/25 07:53:55;;;;;;;11.52;4.53;;;;;;;16.70;100.00;101160.56;5094865;28;20382;-77
2022/05/25 07:56:21;;;;;;;11.07;4.00;;;;;;;16.54;100.00;101158.47;5077636;28;20035;-78
2022/05/25 07:58:46;;;;;;;7.78;4.10;;;;;;;16.88;100.00;101158.75;5079510;28;20084;-78
2022/05/25 08:01:15;;;;;;;11.85;4.05;;;;;;;17.56;100.00;101167.53;5057429;28;20116;-78
2022/05/25 08:06:29;;;;;;;7.50;3.88;;;;;;;17.11;100.00;101165.75;5093344;28;20064;-77
2022/05/25 08:08:56;;;;;;;12.75;4.20;;;;;;;17.20;100.00;101162.00;5075346;28;20047;-78
2022/05/25 08:11:22;;;;;;;11.63;3.97;;;;;;;17.22;100.00;101162.75;5077093;28;20060;-78
2022/05/25 08:13:52;;;;;;;10.80;4.13;;;;;;;17.06;100.00;101172.59;5078930;28;20040;-80
2022/05/25 08:16:17;;;;;;;9.18;3.45;;;;;;;17.43;100.00;101167.94;5094972;28;20051;-77
2022/05/25 08:18:43;;;;;;;11.88;4.10;;;;;;;17.16;100.00;101172.53;5085480;28;20039;-76
2022/05/25 08:21:09;;;;;;;4.53;3.53;;;;;;;17.34;100.00;101175.31;5076901;28;20472;-77
2022/05/25 08:23:34;;;;;;;12.10;3.45;;;;;;;17.83;100.00;101172.97;5093404;28;20491;-77
2022/05/25 08:26:00;;;;;;;7.78;3.08;;;;;;;18.00;100.00;101178.66;5100408;28;20031;-78
2022/05/25 08:28:26;;;;;;;14.65;3.50;;;;;;;17.42;100.00;101175.41;5079440;28;20122;-78
2022/05/25 08:30:51;;;;;;;13.23;3.80;;;;;;;17.65;100.00;101172.13;5078013;28;20090;-78
2022/05/25 08:33:20;;;;;;;13.25;3.88;;;;;;;17.58;100.00;101158.06;5113578;28;20630;-78
2022/05/25 08:35:46;;;;;;;16.98;3.72;;;;;;;17.30;100.00;101167.47;5095196;28;20020;-77
2022/05/25 08:38:12;;;;;;;13.65;3.45;;;;;;;18.00;100.00;101178.66;5095271;28;20028;-77
2022/05/25 08:40:38;;;;;;;6.95;3.63;;;;;;;18.32;100.00;101164.16;5095590;28;20119;-76
2022/05/25 08:43:15;;;;;;;12.00;3.30;;;;;;;18.23;100.00;101167.91;5111936;28;20039;-77
2022/05/25 08:45:51;;;;;;;9.00;3.42;;;;;;;17.80;100.00;101169.66;5076589;28;20024;-77
2022/05/25 08:48:17;;;;;;;;;;;;;;;18.39;99.62;101158.81;5109234;28;20039;-77
2022/05/25 08:50:46;;;;;;;12.43;3.78;;;;;;;18.43;100.00;101160.25;5117631;28;20619;-78
2022/05/25 08:53:13;;;;;;;8.77;3.55;;;;;;;18.99;95.30;101165.31;5100263;28;20036;-77
2022/05/25 08:55:57;;;;;;;8.45;3.42;;;;;;;18.53;98.68;101154.56;5083568;28;20036;-76
2022/05/25 08:58:34;;;;;;;15.15;3.40;;;;;;;18.11;100.00;101149.81;5119267;28;20386;-77
2022/05/25 09:01:04;;;;;;;15.35;3.35;;;;;;;18.58;99.77;101146.59;5097576;28;20463;-76
2022/05/25 09:04:03;;;;;;;14.88;3.83;;;;;;;18.94;96.70;101159.41;5081503;28;20028;-77
2022/05/25 09:06:54;;;;;;;7.35;2.65;;;;;;;17.47;100.00;101160.22;5071330;28;20375;-77
2022/05/25 09:09:36;;;;;;;9.23;2.60;;;;;;;17.48;100.00;101150.88;5120269;28;20416;-78
2022/05/25 09:12:09;;;;;;;3.77;1.87;;;;;;;17.87;99.94;101150.50;5095789;28;20043;-76
2022/05/25 09:14:43;;;;;;;5.20;2.40;;;;;;;19.06;94.11;101146.97;5064946;28;20064;-77
2022/05/25 09:17:25;;;;;;;9.52;2.30;;;;;;;19.14;93.31;101154.44;5079844;28;20042;-76
2022/05/25 09:19:52;;;;;;;9.90;2.58;;;;;;;19.77;88.63;101151.03;5082434;28;20486;-76
2022/05/25 09:22:22;;;;;;;5.38;1.55;;;;;;;19.77;87.85;101155.72;5099420;28;20043;-76
2022/05/25 09:24:50;;;;;;;4.03;2.00;;;;;;;19.56;85.10;101151.53;5099330;28;20024;-76
2022/05/25 09:27:21;;;;;;;6.55;1.55;;;;;;;19.58;85.59;101146.69;5095838;28;20028;-77
2022/05/25 09:29:46;;;;;;;13.07;2.47;;;;;;;18.94;88.64;101162.19;5099464;28;20082;-77
2022/05/25 09:32:30;;;;;;;5.28;1.25;;;;;;;19.57;81.25;101157.97;5067014;28;20027;-76
2022/05/25 09:35:08;;;;;;;7.72;1.45;;;;;;;19.06;81.44;101171.94;5099336;28;20047;-76
2022/05/25 09:37:46;;;;;;;2.92;1.30;;;;;;;19.38;82.95;101165.59;5083508;28;20031;-76
2022/05/25 09:40:24;;;;;;;8.02;1.50;;;;;;;19.96;78.54;101158.13;5117585;28;20372;-76
2022/05/25 09:42:57;;;;;;;8.45;1.40;;;;;;;20.41;77.39;101163.25;5102595;28;20020;-76
2022/05/25 09:45:29;;;;;;;11.60;1.67;;;;;;;20.95;74.32;101162.53;5102552;28;20093;-77
2022/05/25 09:47:55;;;;;;;9.05;1.55;;;;;;;21.25;71.62;101157.97;5119425;28;20451;-75
2022/05/25 09:50:24;;;;;;;7.53;1.70;;;;;;;21.13;69.22;101165.03;5099911;28;20051;-77
2022/05/25 09:52:51;;;;;;;6.40;1.50;;;;;;;20.00;74.67;101148.41;5098406;28;20088;-76
2022/05/25 09:55:23;;;;;;;4.53;1.20;;;;;;;20.49;73.91;101161.31;5098841;28;20111;-76
2022/05/25 09:58:02;;;;;;;8.70;1.77;;;;;;;19.93;73.75;101157.63;5099543;28;20055;-77
2022/05/25 10:00:33;;;;;;;6.18;1.35;;;;;;;20.57;71.55;101164.06;5117302;28;20080;-77
2022/05/25 10:03:04;;;;;;;5.20;1.30;;;;;;;20.26;71.25;101163.97;5117411;28;20028;-77
2022/05/25 10:05:46;;;;;;;4.63;0.90;;;;;;;20.29;71.60;101169.19;5101343;28;20035;-76
2022/05/25 10:08:36;;;;;;;3.35;1.10;;;;;;;19.40;73.97;101171.84;5115098;28;20059;-76
2022/05/25 10:11:29;;;;;;;5.65;0.85;;;;;;;18.73;75.76;101180.97;5096000;28;20044;-77
2022/05/25 10:14:35;;;;;;;7.20;1.10;;;;;;;19.44;74.83;101177.91;5081790;28;20115;-77
2022/05/25 10:17:28;;;;;;;4.40;1.20;;;;;;;19.41;73.86;101173.59;5078795;28;20064;-76
2022/05/25 10:19:55;;;;;;;4.57;1.10;;;;;;;19.47;74.35;101181.19;5102155;28;20496;-77
2022/05/25 10:22:41;;;;;;;5.70;1.00;;;;;;;20.45;66.78;101176.63;5083276;28;20043;-76
2022/05/25 10:25:12;;;;;;;9.68;1.88;;;;;;;19.14;70.50;101173.88;5100063;28;20042;-77
2022/05/25 10:27:45;;;;;;;5.03;1.00;;;;;;;20.04;71.18;101173.94;5099398;28;20035;-76
2022/05/25 10:36:47;;;;;;;;;;;;;;;19.73;68.46;101173.78;5119823;28;20088;-77
2022/05/25 10:39:23;;;;;;;8.10;0.90;;;;;;;18.64;71.42;101179.19;5096569;28;19998;-77
2022/05/25 10:42:22;;;;;;;3.47;1.10;;;;;;;18.26;76.16;101195.28;5084295;28;20032;-76
2022/05/25 10:45:12;;;;;;;5.63;1.10;;;;;;;18.53;76.84;101187.84;5118731;28;20023;-76
2022/05/25 10:47:54;;;;;;;8.38;1.10;;;;;;;19.71;73.94;101179.50;5083423;28;20475;-76
2022/05/25 10:50:45;;;;;;;12.32;1.60;;;;;;;20.38;71.31;101179.25;5100837;28;20475;-75
2022/05/25 10:53:10;;;;;;;5.43;1.20;;;;;;;19.29;74.19;101180.50;5084418;28;20034;-77
2022/05/25 10:55:54;;;;;;;6.10;1.25;;;;;;;18.39;74.18;101171.81;5083198;28;20032;-77
2022/05/25 10:58:32;;;;;;;3.97;1.00;;;;;;;18.55;76.08;101169.97;5082976;28;20048;-76
2022/05/25 11:01:09;;;;;;;8.00;1.25;;;;;;;19.53;74.58;101162.09;5083363;28;20511;-76
2022/05/25 11:04:04;;;;;;;4.28;1.13;;;;;;;19.86;71.15;101164.91;5100252;28;20118;-76
2022/05/25 11:06:58;;;;;;;3.92;0.90;;;;;;;20.16;72.48;101153.06;5103346;28;20053;-76
2022/05/25 11:09:35;;;;;;;13.70;1.30;;;;;;;19.57;73.33;101169.06;5100338;28;20786;-77
2022/05/25 11:12:22;;;;;;;7.97;1.15;;;;;;;19.51;71.61;101166.97;5099216;28;20172;-76
2022/05/25 11:15:02;;;;;;;9.00;1.73;;;;;;;19.83;70.04;101149.47;5079405;28;20040;-77
2022/05/25 11:17:43;;;;;;;9.70;1.40;;;;;;;20.71;67.54;101162.47;5099333;28;20039;-77
2022/05/25 11:20:17;;;;;;;7.25;1.38;;;;;;;20.18;67.96;101169.56;5097413;28;20028;-76
2022/05/25 11:23:05;;;;;;;9.90;1.10;;;;;;;20.84;66.15;101158.22;5094482;28;20031;-77
2022/05/25 11:25:47;;;;;;;4.40;1.00;;;;;;;20.83;62.06;101151.81;5118922;27;20031;-77
2022/05/25 11:28:37;;;;;;;10.10;0.80;;;;;;;20.25;61.57;101159.47;5077143;28;20027;-76
2022/05/25 11:31:28;;;;;;;7.45;1.08;;;;;;;21.48;61.03;101164.47;5112052;27;20043;-78
2022/05/25 11:34:36;;;;;;;5.90;1.10;;;;;;;20.86;62.18;101157.00;5120303;27;20072;-77
2022/05/25 11:37:16;;;;;;;5.03;0.90;;;;;;;20.60;64.32;101159.19;5090919;28;20060;-77
2022/05/25 11:40:02;;;;;;;5.45;1.00;;;;;;;20.51;62.11;101147.22;5079120;28;20027;-78
2022/05/25 11:43:10;;;;;;;9.13;0.82;;;;;;;20.10;64.44;101150.13;5088438;28;20051;-79
2022/05/25 11:45:53;;;;;;;8.40;0.90;;;;;;;20.78;62.09;101145.06;5077897;28;20091;-76
2022/05/25 11:48:51;;;;;;;2.30;0.85;;;;;;;21.02;62.10;101139.34;5090756;28;20114;-78
2022/05/25 11:51:31;;;;;;;11.55;1.40;;;;;;;21.24;60.05;101139.56;5089104;28;20112;-77
2022/05/25 11:54:22;;;;;;;1.60;0.70;;;;;;;21.07;53.79;101142.47;5079582;28;20051;-78
2022/05/25 11:57:12;;;;;;;7.25;1.30;;;;;;;20.94;55.72;101131.06;5074375;28;20349;-78